^^
Grace C. Lehan Memorial Weather Station Historical Data
Daily Summary for May 8, 2021 Units:  English    Metric   Both
Daily Weekly Monthly Yearly
  High: Low: Average:
Temperature: 72.5 °F 55.9 °F 64.4 °F
Dew Point: 63.3 °F 54.5 °F 58.6 °F
Humidity: 96.8% 64.3% 82%
Wind Speed: 2.8mph 0mph 0.3mph
Wind Gust: 13mph - -
Wind- - East
Pressure: 30.22 in 30.11 in -
Precipitation: 0.00 in    
 
 
Tabular Data for May 8, 2021
Time Temperature Dew Point Pressure Wind Wind Speed Wind Gust Humidity Rainfall Rate (Hourly) solar
00:04 59.1 °F 57.4 °F 30.14 in Calm     94% 0.00 in 0 W/m2
00:09 59.1 °F 57.4 °F 30.14 in Calm     94% 0.00 in 0 W/m2
00:14 59 °F 57.3 °F 30.14 in Calm     94% 0.00 in 0 W/m2
00:19 59 °F 57.3 °F 30.14 in Calm     94% 0.00 in 0 W/m2
00:24 58.9 °F 57.2 °F 30.14 in Calm     94% 0.00 in 0 W/m2
00:29 58.9 °F 57.2 °F 30.14 in Calm     94% 0.00 in 0 W/m2
00:34 58.9 °F 57.2 °F 30.13 in Calm     94% 0.00 in 0 W/m2
00:39 58.8 °F 57.1 °F 30.13 in Calm     94% 0.00 in 0 W/m2
00:44 58.7 °F 57 °F 30.13 in Calm     94% 0.00 in 0 W/m2
00:49 58.6 °F 56.9 °F 30.13 in Calm     94% 0.00 in 0 W/m2
00:54 58.5 °F 56.8 °F 30.13 in Calm     94% 0.00 in 0 W/m2
00:59 58.4 °F 56.7 °F 30.13 in Calm     94% 0.00 in 0 W/m2
01:04 58.3 °F 56.6 °F 30.13 in Calm     94% 0.00 in 0 W/m2
01:09 58.2 °F 56.5 °F 30.13 in Calm     94% 0.00 in 0 W/m2
01:14 58.1 °F 56.4 °F 30.13 in Calm     94% 0.00 in 0 W/m2
01:19 58 °F 56.3 °F 30.13 in Calm     94% 0.00 in 0 W/m2
01:24 58 °F 56.3 °F 30.13 in Calm     94% 0.00 in 0 W/m2
01:29 58 °F 56.3 °F 30.12 in Calm     94% 0.00 in 0 W/m2
01:34 58 °F 56.3 °F 30.12 in Calm     94% 0.00 in 0 W/m2
01:39 58 °F 56.3 °F 30.12 in Calm     94% 0.00 in 0 W/m2
01:44 58 °F 56.3 °F 30.12 in Calm     94% 0.00 in 0 W/m2
01:49 57.9 °F 56.4 °F 30.12 in Calm     94.8% 0.00 in 0 W/m2
01:54 57.9 °F 56.5 °F 30.12 in Calm     95% 0.00 in 0 W/m2
01:59 58 °F 56.6 °F 30.12 in Calm     95% 0.00 in 0 W/m2
02:04 58 °F 56.6 °F 30.12 in Calm     95% 0.00 in 0 W/m2
02:09 58 °F 56.6 °F 30.12 in Calm     95% 0.00 in 0 W/m2
02:14 58 °F 56.6 °F 30.12 in Calm     95% 0.00 in 0 W/m2
02:19 58 °F 56.6 °F 30.12 in Calm     95% 0.00 in 0 W/m2
02:24 57.9 °F 56.5 °F 30.12 in Calm     95% 0.00 in 0 W/m2
02:29 57.9 °F 56.5 °F 30.11 in Calm     95% 0.00 in 0 W/m2
02:34 57.8 °F 56.4 °F 30.11 in Calm     95% 0.00 in 0 W/m2
02:39 57.8 °F 56.4 °F 30.11 in Calm     95% 0.00 in 0 W/m2
02:44 57.7 °F 56.3 °F 30.11 in Calm     95% 0.00 in 0 W/m2
02:49 57.6 °F 56.1 °F 30.11 in Calm     95% 0.00 in 0 W/m2
02:54 57.4 °F 56 °F 30.11 in Calm     95% 0.00 in 0 W/m2
02:59 57.2 °F 55.8 °F 30.11 in Calm     95% 0.00 in 0 W/m2
03:04 57.1 °F 55.6 °F 30.11 in Calm     95% 0.00 in 0 W/m2
03:09 57 °F 55.5 °F 30.11 in Calm     95% 0.00 in 0 W/m2
03:14 56.9 °F 55.5 °F 30.11 in Calm     95% 0.00 in 0 W/m2
03:19 56.9 °F 55.5 °F 30.11 in Calm     95% 0.00 in 0 W/m2
03:24 56.9 °F 55.5 °F 30.11 in Calm     95% 0.00 in 0 W/m2
03:29 56.8 °F 55.4 °F 30.11 in Calm     95% 0.00 in 0 W/m2
03:34 56.8 °F 55.4 °F 30.11 in Calm     95% 0.00 in 0 W/m2
03:39 56.8 °F 55.4 °F 30.11 in Calm     95% 0.00 in 0 W/m2
03:44 56.8 °F 55.4 °F 30.11 in Calm     95% 0.00 in 0 W/m2
03:49 56.9 °F 55.5 °F 30.11 in Calm     95% 0.00 in 0 W/m2
03:54 57 °F 55.6 °F 30.11 in Calm     95% 0.00 in 0 W/m2
03:59 57.1 °F 55.7 °F 30.11 in Calm     95% 0.00 in 0 W/m2
04:04 57.1 °F 55.7 °F 30.11 in Calm     95% 0.00 in 0 W/m2
04:09 57.1 °F 55.7 °F 30.11 in Calm     95% 0.00 in 0 W/m2
04:14 57.1 °F 55.9 °F 30.11 in Calm     95.6% 0.00 in 0 W/m2
04:19 57.1 °F 56 °F 30.11 in Calm     96% 0.00 in 0 W/m2
04:22 57.1 °F 56 °F 30.11 in Calm     96% 0.00 in 0 W/m2
05:00 56.9 °F 55.5 °F 30.11 in Calm     95% 0.00 in 0 W/m2
05:30 56.6 °F 55.2 °F 30.11 in Calm     95% 0.00 in 0 W/m2
06:00 56.3 °F 54.9 °F 30.12 in Calm     95% 0.00 in 0 W/m2
06:30 56.2 °F 55.1 °F 30.12 in Calm     96% 0.00 in 0 W/m2
07:00 55.9 °F 54.8 °F 30.12 in Calm     96% 0.00 in 0 W/m2
07:30 56.2 °F 55.1 °F 30.13 in Calm     96% 0.00 in 11 W/m2
08:04 56.5 °F 55.4 °F 30.15 in Calm     96% 0.00 in 33 W/m2
08:09 56.5 °F 55.4 °F 30.15 in Calm     96% 0.00 in 49 W/m2
08:14 56.7 °F 55.5 °F 30.15 in Calm     96% 0.00 in 39 W/m2
08:19 56.8 °F 55.7 °F 30.15 in Calm     96% 0.00 in 33 W/m2
08:24 56.9 °F 55.8 °F 30.15 in Calm     96% 0.00 in 33 W/m2
08:29 57.1 °F 55.9 °F 30.15 in Calm     96% 0.00 in 35 W/m2
08:34 57.2 °F 56.1 °F 30.15 in Calm     96% 0.00 in 39 W/m2
08:39 57.4 °F 56.3 °F 30.14 in Calm     96% 0.00 in 53 W/m2
08:44 57.7 °F 56.5 °F 30.15 in Calm   1 mph 96% 0.00 in 56 W/m2
08:49 58 °F 56.9 °F 30.15 in Calm   1 mph 96.3% 0.00 in 67 W/m2
08:54 58.2 °F 57.3 °F 30.15 in Calm   1 mph 96.8% 0.00 in 72 W/m2
08:59 58.5 °F 57.4 °F 30.15 in Calm   1 mph 96.2% 0.00 in 88 W/m2
09:04 58.8 °F 57.9 °F 30.15 in NE 0.3 mph 4 mph 96.8% 0.00 in 338 W/m2
09:09 59.4 °F 58.5 °F 30.15 in NE 0.3 mph 4 mph 96.6% 0.00 in 357 W/m2
09:14 60.2 °F 59.2 °F 30.15 in ENE 0.5 mph 5 mph 96.5% 0.00 in 369 W/m2
09:19 61.1 °F 59.9 °F 30.15 in North 0.5 mph 5 mph 96% 0.00 in 383 W/m2
09:24 62.3 °F 60.9 °F 30.15 in ENE 0.2 mph 5 mph 95.2% 0.00 in 401 W/m2
09:29 63.4 °F 61.3 °F 30.15 in NE 0.5 mph 5 mph 92.8% 0.00 in 418 W/m2
09:34 64.4 °F 61.1 °F 30.15 in Calm   5 mph 89.2% 0.00 in 436 W/m2
09:39 65.3 °F 61.7 °F 30.15 in ENE 0.1 mph 1 mph 88% 0.00 in 457 W/m2
09:44 66.2 °F 61.6 °F 30.15 in Calm   1 mph 85.1% 0.00 in 476 W/m2
09:49 67 °F 62 °F 30.15 in Calm   1 mph 83.9% 0.00 in 494 W/m2
09:54 67.8 °F 62.2 °F 30.15 in NE 0.1 mph 2 mph 82.1% 0.00 in 561 W/m2
09:59 68.6 °F 62.1 °F 30.15 in East 0.8 mph 5 mph 79.9% 0.00 in 638 W/m2
10:04 68.9 °F 62.3 °F 30.15 in ENE 0.7 mph 5 mph 79.5% 0.00 in 309 W/m2
10:09 69 °F 61.7 °F 30.15 in ENE 0.3 mph 4 mph 77.7% 0.00 in 272 W/m2
10:14 68.5 °F 61.1 °F 30.15 in ENE 0.1 mph 4 mph 77.2% 0.00 in 272 W/m2
10:19 68.1 °F 61.7 °F 30.15 in ENE 0.1 mph 4 mph 79.9% 0.00 in 258 W/m2
10:24 68 °F 61.4 °F 30.15 in ENE 0.5 mph 4 mph 79.5% 0.00 in 306 W/m2
10:29 68 °F 61.5 °F 30.15 in NE 0.6 mph 6 mph 79.7% 0.00 in 353 W/m2
10:34 68.1 °F 61.4 °F 30.15 in ENE 1.7 mph 6 mph 79.1% 0.00 in 343 W/m2
10:39 68.5 °F 62.2 °F 30.15 in Calm   6 mph 80.4% 0.00 in 374 W/m2
10:44 69 °F 62.2 °F 30.15 in ENE 0.3 mph 6 mph 79% 0.00 in 392 W/m2
10:49 69 °F 61.7 °F 30.15 in ENE 0.5 mph 6 mph 77.6% 0.00 in 378 W/m2
10:54 69 °F 62.1 °F 30.15 in Calm   6 mph 78.8% 0.00 in 338 W/m2
10:59 68.9 °F 61.9 °F 30.15 in ENE 0.8 mph 6 mph 78.2% 0.00 in 325 W/m2
11:04 68.8 °F 61.9 °F 30.15 in ENE 0.6 mph 6 mph 78.4% 0.00 in 308 W/m2
11:09 68.8 °F 62 °F 30.15 in ENE 0.1 mph 4 mph 78.8% 0.00 in 338 W/m2
11:14 68.7 °F 61.7 °F 30.15 in ENE 0.2 mph 4 mph 78.3% 0.00 in 322 W/m2
11:15 68.6 °F 61.5 °F 30.15 in Calm   4 mph 78% 0.00 in 283 W/m2
11:30 68.9 °F 62.1 °F 30.14 in Calm   6 mph 79% 0.00 in 283 W/m2
12:09 69.5 °F 61.5 °F 30.14 in NE 1 mph 6 mph 75.7% 0.00 in 297 W/m2
12:14 69.6 °F 61.6 °F 30.14 in ENE 0.2 mph 4 mph 76% 0.00 in 306 W/m2
12:19 69.7 °F 61.6 °F 30.14 in ENE 0.6 mph 5 mph 75.7% 0.00 in 292 W/m2
12:24 69.7 °F 62.2 °F 30.14 in NE 0.2 mph 5 mph 76.9% 0.00 in 283 W/m2
12:29 70 °F 62.4 °F 30.14 in East 0.1 mph 5 mph 76.8% 0.00 in 302 W/m2
12:34 70.2 °F 62.3 °F 30.14 in NW 1.2 mph 11 mph 76% 0.00 in 283 W/m2
12:39 70.3 °F 62.5 °F 30.14 in NW 0.4 mph 11 mph 76.2% 0.00 in 255 W/m2
12:44 70.5 °F 62.7 °F 30.14 in NW 0.3 mph 11 mph 76.2% 0.00 in 260 W/m2
12:49 70.8 °F 62.9 °F 30.14 in Calm   11 mph 76.1% 0.00 in 283 W/m2
12:54 71 °F 63.2 °F 30.14 in NNW 0.6 mph 11 mph 76.4% 0.00 in 283 W/m2
12:59 71.2 °F 63.2 °F 30.14 in NNW 0.9 mph 11 mph 75.8% 0.00 in 279 W/m2
13:04 71.2 °F 63.3 °F 30.14 in Calm   11 mph 75.9% 0.00 in 281 W/m2
13:09 71.4 °F 63.2 °F 30.14 in NNE 0.4 mph 3 mph 75.2% 0.00 in 323 W/m2
13:14 71.5 °F 62.8 °F 30.14 in East 1.2 mph 4 mph 73.9% 0.00 in 381 W/m2
13:19 71.4 °F 62.8 °F 30.13 in East 0.1 mph 4 mph 74.4% 0.00 in 288 W/m2
13:24 71.5 °F 63.3 °F 30.13 in ENE 0.5 mph 5 mph 75.1% 0.00 in 257 W/m2
13:29 71.6 °F 62.5 °F 30.13 in ENE 0.8 mph 5 mph 73.1% 0.00 in 174 W/m2
13:34 71.5 °F 62.3 °F 30.13 in NE 0.6 mph 5 mph 72.7% 0.00 in 146 W/m2
13:39 71.5 °F 62.8 °F 30.13 in NNE 0.6 mph 5 mph 74% 0.00 in 146 W/m2
13:44 71.5 °F 61.9 °F 30.13 in ENE 2 mph 7 mph 71.7% 0.00 in 74 W/m2
13:49 71.5 °F 61.8 °F 30.12 in East 1.3 mph 7 mph 71.3% 0.00 in 209 W/m2
13:54 71.6 °F 60.9 °F 30.12 in NE 2.2 mph 9 mph 69.1% 0.00 in 216 W/m2
13:59 71.8 °F 61.3 °F 30.12 in NE 1 mph 9 mph 69.5% 0.00 in 260 W/m2
14:04 72 °F 61.5 °F 30.12 in NNE 0.5 mph 9 mph 69.6% 0.00 in 264 W/m2
14:09 72.2 °F 61.9 °F 30.12 in NE 0.4 mph 4 mph 69.9% 0.00 in 229 W/m2
14:14 72.3 °F 61.3 °F 30.12 in ESE 0.7 mph 5 mph 68.4% 0.00 in 221 W/m2
14:19 72.3 °F 61.1 °F 30.12 in Calm   5 mph 67.9% 0.00 in 204 W/m2
14:24 72.3 °F 61 °F 30.12 in Calm   5 mph 67.7% 0.00 in 132 W/m2
14:29 72.2 °F 60.8 °F 30.12 in Calm   5 mph 67.5% 0.00 in 125 W/m2
14:34 72.1 °F 60.8 °F 30.11 in Calm   5 mph 67.6% 0.00 in 132 W/m2
14:39 72.1 °F 60.6 °F 30.11 in East 0.1 mph 2 mph 67.2% 0.00 in 104 W/m2
14:44 72.2 °F 60.6 °F 30.11 in Calm   2 mph 67% 0.00 in 120 W/m2
14:49 72.2 °F 61 °F 30.11 in ENE 1 mph 4 mph 67.7% 0.00 in 105 W/m2
14:54 72.2 °F 60.2 °F 30.11 in ENE 1.1 mph 6 mph 65.9% 0.00 in 102 W/m2
14:59 72.1 °F 60 °F 30.11 in NE 1.1 mph 7 mph 65.5% 0.00 in 77 W/m2
15:04 72.1 °F 60.3 °F 30.11 in NE 0.1 mph 7 mph 66.3% 0.00 in 81 W/m2
15:09 72.1 °F 60.6 °F 30.11 in NE 0.5 mph 5 mph 67% 0.00 in 93 W/m2
15:14 72.1 °F 60.6 °F 30.11 in ENE 0.4 mph 5 mph 67.2% 0.00 in 116 W/m2
15:19 72.2 °F 60.6 °F 30.11 in ENE 0.7 mph 5 mph 66.9% 0.00 in 125 W/m2
15:24 72.3 °F 60.4 °F 30.11 in ENE 2.1 mph 6 mph 66.2% 0.00 in 169 W/m2
15:29 72.5 °F 60 °F 30.11 in East 0.1 mph 6 mph 65% 0.00 in 200 W/m2
15:34 72.5 °F 59.8 °F 30.11 in East 1.5 mph 6 mph 64.4% 0.00 in 229 W/m2
15:39 72.5 °F 59.7 °F 30.11 in ENE 2 mph 6 mph 64.3% 0.00 in 91 W/m2
15:44 72.3 °F 59.8 °F 30.12 in ENE 0.6 mph 6 mph 64.7% 0.00 in 83 W/m2
15:49 72.2 °F 60 °F 30.12 in ENE 0.4 mph 6 mph 65.4% 0.00 in 56 W/m2
15:54 72 °F 59.8 °F 30.12 in East 0.1 mph 6 mph 65.5% 0.00 in 51 W/m2
15:59 71.8 °F 59.9 °F 30.12 in East 0.4 mph 6 mph 66% 0.00 in 49 W/m2
16:00 71.8 °F 59.8 °F 30.12 in Calm   6 mph 66% 0.00 in 47 W/m2
16:09 71.6 °F 59.7 °F 30.11 in Calm     66.2% 0.00 in 40 W/m2
16:14 71.6 °F 60 °F 30.11 in Calm   1 mph 66.8% 0.00 in 40 W/m2
16:19 71.5 °F 59.6 °F 30.12 in ENE 0.1 mph 1 mph 66.2% 0.00 in 40 W/m2
16:24 71.5 °F 59.7 °F 30.12 in Calm   1 mph 66.3% 0.00 in 40 W/m2
16:29 71.4 °F 59.5 °F 30.12 in Calm   1 mph 66.1% 0.00 in 37 W/m2
16:34 71.3 °F 59.6 °F 30.12 in Calm   1 mph 66.5% 0.00 in 44 W/m2
16:39 71.2 °F 59.7 °F 30.12 in Calm     67% 0.00 in 44 W/m2
16:44 71.1 °F 60 °F 30.12 in Calm     68% 0.00 in 46 W/m2
16:49 71 °F 59.9 °F 30.12 in Calm     68% 0.00 in 49 W/m2
16:54 71 °F 59.9 °F 30.12 in Calm     68% 0.00 in 51 W/m2
16:59 70.9 °F 60.2 °F 30.12 in Calm     68.9% 0.00 in 47 W/m2
17:04 70.9 °F 60.2 °F 30.12 in Calm     69% 0.00 in 47 W/m2
17:09 70.8 °F 60.2 °F 30.12 in Calm     69.1% 0.00 in 42 W/m2
17:14 70.8 °F 60.4 °F 30.12 in Calm     69.8% 0.00 in 40 W/m2
17:19 70.7 °F 60.3 °F 30.12 in Calm     69.6% 0.00 in 33 W/m2
17:24 70.6 °F 60.3 °F 30.12 in Calm     70% 0.00 in 30 W/m2
17:29 70.4 °F 60.5 °F 30.12 in Calm     70.7% 0.00 in 25 W/m2
17:34 70.3 °F 60.1 °F 30.13 in Calm     70.2% 0.00 in 21 W/m2
17:39 70.2 °F 60.3 °F 30.13 in Calm     71% 0.00 in 19 W/m2
17:44 70 °F 60 °F 30.13 in Calm     70.6% 0.00 in 18 W/m2
17:49 69.9 °F 60.1 °F 30.13 in Calm     71.1% 0.00 in 14 W/m2
17:54 69.7 °F 60.3 °F 30.13 in Calm     72% 0.00 in 12 W/m2
17:59 69.5 °F 60.1 °F 30.13 in Calm     72% 0.00 in 11 W/m2
18:04 69.3 °F 60.3 °F 30.13 in Calm     73.1% 0.00 in 9 W/m2
18:09 69.1 °F 60.7 °F 30.13 in Calm     74.7% 0.00 in 7 W/m2
18:14 68.9 °F 61 °F 30.13 in Calm     76% 0.00 in 5 W/m2
18:19 68.7 °F 61.3 °F 30.14 in Calm     77.3% 0.00 in 0 W/m2
18:24 68.4 °F 61.4 °F 30.14 in Calm     78.2% 0.00 in 0 W/m2
18:29 68.2 °F 61.4 °F 30.14 in Calm     78.9% 0.00 in 0 W/m2
18:34 67.9 °F 61.1 °F 30.14 in Calm     79% 0.00 in 0 W/m2
18:39 67.5 °F 60.8 °F 30.14 in Calm     79% 0.00 in 0 W/m2
18:44 67.3 °F 60.7 °F 30.14 in Calm     79.6% 0.00 in 0 W/m2
18:49 67 °F 60.8 °F 30.14 in Calm     80.5% 0.00 in 0 W/m2
18:54 66.8 °F 60.8 °F 30.14 in Calm     81% 0.00 in 0 W/m2
18:59 66.6 °F 60.7 °F 30.15 in Calm     81.4% 0.00 in 0 W/m2
19:04 66.4 °F 60.7 °F 30.14 in Calm     82% 0.00 in 0 W/m2
19:09 66.2 °F 60.5 °F 30.15 in Calm     82% 0.00 in 0 W/m2
19:14 66 °F 60.6 °F 30.15 in Calm     82.7% 0.00 in 0 W/m2
19:19 65.8 °F 60.5 °F 30.15 in Calm     83% 0.00 in 0 W/m2
19:24 65.7 °F 60.6 °F 30.15 in Calm     83.6% 0.00 in 0 W/m2
19:29 65.5 °F 60.6 °F 30.15 in Calm     84% 0.00 in 0 W/m2
19:34 65.4 °F 60.5 °F 30.15 in Calm     84% 0.00 in 0 W/m2
19:39 65.3 °F 60.5 °F 30.16 in Calm     84.4% 0.00 in 0 W/m2
19:44 65.1 °F 60.3 °F 30.16 in Calm     84.3% 0.00 in 0 W/m2
19:49 65 °F 60.4 °F 30.16 in Calm     85% 0.00 in 0 W/m2
19:54 64.9 °F 60.3 °F 30.16 in Calm     85% 0.00 in 0 W/m2
19:59 64.8 °F 60.2 °F 30.16 in Calm     85% 0.00 in 0 W/m2
20:00 64.7 °F 60.1 °F 30.16 in Calm     85% 0.00 in 0 W/m2
20:09 64.5 °F 59.2 °F 30.17 in ENE 2.5 mph 11 mph 82.8% 0.00 in 0 W/m2
20:14 64.7 °F 58.7 °F 30.17 in ENE 1.1 mph 11 mph 80.8% 0.00 in 0 W/m2
20:19 64.9 °F 58.5 °F 30.17 in East 0.1 mph 11 mph 79.8% 0.00 in 0 W/m2
20:24 65 °F 58.3 °F 30.17 in Calm   11 mph 79% 0.00 in 0 W/m2
20:29 65 °F 58.3 °F 30.17 in East 0.1 mph 11 mph 79% 0.00 in 0 W/m2
20:34 64.9 °F 58.2 °F 30.17 in Calm   11 mph 79% 0.00 in 0 W/m2
20:39 64.8 °F 58 °F 30.18 in East 0.1 mph 3 mph 78.7% 0.00 in 0 W/m2
20:44 64.6 °F 57.6 °F 30.18 in Calm   3 mph 78% 0.00 in 0 W/m2
20:49 64.5 °F 57.5 °F 30.18 in Calm   3 mph 78% 0.00 in 0 W/m2
20:54 64.3 °F 57.4 °F 30.18 in Calm   3 mph 78.4% 0.00 in 0 W/m2
20:59 64 °F 57.1 °F 30.18 in Calm   3 mph 78% 0.00 in 0 W/m2
21:04 63.9 °F 57 °F 30.18 in Calm   3 mph 78.5% 0.00 in 0 W/m2
21:09 63.6 °F 57 °F 30.19 in Calm     79% 0.00 in 0 W/m2
21:14 63.4 °F 56.8 °F 30.19 in Calm     79% 0.00 in 0 W/m2
21:19 63.2 °F 56.8 °F 30.19 in Calm     79.6% 0.00 in 0 W/m2
21:24 63 °F 56.7 °F 30.19 in Calm     80% 0.00 in 0 W/m2
21:29 62.7 °F 56.5 °F 30.19 in Calm     80% 0.00 in 0 W/m2
21:34 62.4 °F 56.2 °F 30.19 in ENE 1 mph 7 mph 80% 0.00 in 0 W/m2
21:39 62.2 °F 55.7 °F 30.20 in East 1.8 mph 9 mph 79% 0.00 in 0 W/m2
21:44 62.2 °F 55.3 °F 30.20 in East 1.4 mph 9 mph 78% 0.00 in 0 W/m2
21:49 62.2 °F 55.3 °F 30.20 in East 1.4 mph 9 mph 78% 0.00 in 0 W/m2
21:54 62.2 °F 55.3 °F 30.20 in East 1.9 mph 10 mph 78% 0.00 in 0 W/m2
21:59 62.2 °F 55.2 °F 30.20 in ENE 1.2 mph 10 mph 78% 0.00 in 0 W/m2
22:04 62.1 °F 55.2 °F 30.20 in ENE 2.8 mph 13 mph 78.2% 0.00 in 0 W/m2
22:09 61.9 °F 55.4 °F 30.21 in East 2.1 mph 13 mph 79% 0.00 in 0 W/m2
22:14 61.7 °F 55.5 °F 30.21 in East 1.1 mph 13 mph 79.9% 0.00 in 0 W/m2
22:19 61.5 °F 55.5 °F 30.21 in ENE 1.1 mph 13 mph 80.6% 0.00 in 0 W/m2
22:24 61.3 °F 55.4 °F 30.21 in ENE 1.2 mph 13 mph 81% 0.00 in 0 W/m2
22:29 61 °F 55.5 °F 30.21 in ENE 2.3 mph 13 mph 82% 0.00 in 0 W/m2
22:34 60.8 °F 55.6 °F 30.21 in East 0.9 mph 13 mph 83% 0.00 in 0 W/m2
22:39 60.5 °F 55.6 °F 30.21 in NE 1 mph 9 mph 83.9% 0.00 in 0 W/m2
22:44 60.3 °F 55.5 °F 30.21 in ENE 1.4 mph 9 mph 84% 0.00 in 0 W/m2
22:49 60.2 °F 55.6 °F 30.21 in ENE 0.7 mph 9 mph 85% 0.00 in 0 W/m2
22:54 60 °F 55.5 °F 30.21 in NE 1.7 mph 9 mph 85% 0.00 in 0 W/m2
22:59 59.8 °F 55.3 °F 30.21 in NE 0.3 mph 9 mph 85% 0.00 in 0 W/m2
23:04 59.7 °F 55.5 °F 30.21 in Calm   9 mph 85.7% 0.00 in 0 W/m2
23:09 59.6 °F 55.4 °F 30.21 in Calm     86% 0.00 in 0 W/m2
23:14 59.5 °F 55.3 °F 30.21 in Calm     86% 0.00 in 0 W/m2
23:19 59.4 °F 55.3 °F 30.21 in Calm     86% 0.00 in 0 W/m2
23:24 59.3 °F 55.1 °F 30.22 in Calm     86% 0.00 in 0 W/m2
23:29 59.1 °F 55 °F 30.22 in Calm     86% 0.00 in 0 W/m2
23:34 59 °F 54.8 °F 30.22 in Calm     86% 0.00 in 0 W/m2
23:39 58.9 °F 54.7 °F 30.21 in Calm     86% 0.00 in 0 W/m2
23:44 58.7 °F 54.6 °F 30.22 in Calm     86.4% 0.00 in 0 W/m2
23:49 58.6 °F 54.7 °F 30.22 in Calm     87% 0.00 in 0 W/m2
23:54 58.4 °F 54.6 °F 30.22 in Calm     87% 0.00 in 0 W/m2
23:59 58.3 °F 54.5 °F 30.22 in Calm     87.3% 0.00 in 0 W/m2
Hartford County Weather
Compliments of Weather Underground - 2 mb